Bureau, Illinois
Current Conditions -  °F | °C
As of 9:35 PM on Saturday 22 Nov 2014 (Local Time) from KVYS Reporting Station
Scattered Clouds Scattered Clouds  
Wind Chill: 52°   Ceiling: Unl
Heat Index: 52°   Visibility: 10mi
Dew Point: 47°   Wind: 14mph
Humidity: 83%   Direction: 190°S
Pressure: 29.85"   Gusts: NA
Location:  41.29°N, 89.37°W
Report Text: KVYS 230335Z AUTO 19012KT 10SM SCT070 11/08 A2985 RMK AO2 T01090082
Loading
Personal Weather Stations






























Interactive Weather Map New forecast layout! Learn more

10-Day Weather Forecast

Advertisements
Track Severe Weather on mobile